sensor_id;sensor_type;location;lat;lon;timestamp;temperature;humidity
28761;DHT22;15917;50.014;8.352;2023-06-26T00:02:13;23.80;99.90
28761;DHT22;15917;50.014;8.352;2023-06-26T00:04:39;23.80;99.90
28761;DHT22;15917;50.014;8.352;2023-06-26T00:07:05;23.70;99.90
28761;DHT22;15917;50.014;8.352;2023-06-26T00:09:30;23.60;99.90
28761;DHT22;15917;50.014;8.352;2023-06-26T00:11:56;23.60;99.90
28761;DHT22;15917;50.014;8.352;2023-06-26T00:14:21;23.50;99.90
28761;DHT22;15917;50.014;8.352;2023-06-26T00:16:47;23.50;99.90
28761;DHT22;15917;50.014;8.352;2023-06-26T00:19:15;23.40;99.90
28761;DHT22;15917;50.014;8.352;2023-06-26T00:21:41;23.40;99.90
28761;DHT22;15917;50.014;8.352;2023-06-26T00:24:12;23.30;99.90
28761;DHT22;15917;50.014;8.352;2023-06-26T00:26:37;23.20;99.90
28761;DHT22;15917;50.014;8.352;2023-06-26T00:29:03;23.20;99.90
28761;DHT22;15917;50.014;8.352;2023-06-26T00:31:29;23.10;99.90
28761;DHT22;15917;50.014;8.352;2023-06-26T00:33:54;23.10;99.90
28761;DHT22;15917;50.014;8.352;2023-06-26T00:36:23;23.10;99.90
28761;DHT22;15917;50.014;8.352;2023-06-26T00:38:52;23.10;99.90
28761;DHT22;15917;50.014;8.352;2023-06-26T00:41:18;23.10;99.90
28761;DHT22;15917;50.014;8.352;2023-06-26T00:43:44;23.10;99.90
28761;DHT22;15917;50.014;8.352;2023-06-26T00:46:12;23.00;99.90
28761;DHT22;15917;50.014;8.352;2023-06-26T00:48:39;23.00;99.90
28761;DHT22;15917;50.014;8.352;2023-06-26T00:51:06;23.00;99.90
28761;DHT22;15917;50.014;8.352;2023-06-26T00:53:33;23.00;99.90
28761;DHT22;15917;50.014;8.352;2023-06-26T00:55:59;23.00;99.90
28761;DHT22;15917;50.014;8.352;2023-06-26T00:58:25;23.10;99.90
28761;DHT22;15917;50.014;8.352;2023-06-26T01:00:52;23.00;99.90
28761;DHT22;15917;50.014;8.352;2023-06-26T01:03:19;23.00;99.90
28761;DHT22;15917;50.014;8.352;2023-06-26T01:05:46;23.00;99.90
28761;DHT22;15917;50.014;8.352;2023-06-26T01:08:17;22.90;99.90
28761;DHT22;15917;50.014;8.352;2023-06-26T01:10:45;22.80;99.90
28761;DHT22;15917;50.014;8.352;2023-06-26T01:13:12;22.70;99.90
28761;DHT22;15917;50.014;8.352;2023-06-26T01:15:38;22.70;99.90
28761;DHT22;15917;50.014;8.352;2023-06-26T01:18:05;22.70;99.90
28761;DHT22;15917;50.014;8.352;2023-06-26T01:20:38;22.70;99.90
28761;DHT22;15917;50.014;8.352;2023-06-26T01:23:20;22.60;99.90
28761;DHT22;15917;50.014;8.352;2023-06-26T01:28:35;22.50;99.90
28761;DHT22;15917;50.014;8.352;2023-06-26T01:31:03;22.40;99.90
28761;DHT22;15917;50.014;8.352;2023-06-26T01:33:30;22.40;99.90
28761;DHT22;15917;50.014;8.352;2023-06-26T01:35:55;22.30;99.90
28761;DHT22;15917;50.014;8.352;2023-06-26T01:38:22;22.30;99.90
28761;DHT22;15917;50.014;8.352;2023-06-26T01:40:56;22.30;99.90
28761;DHT22;15917;50.014;8.352;2023-06-26T01:43:43;22.30;99.90
28761;DHT22;15917;50.014;8.352;2023-06-26T01:46:42;22.30;99.90
28761;DHT22;15917;50.014;8.352;2023-06-26T01:51:42;22.30;99.90
28761;DHT22;15917;50.014;8.352;2023-06-26T01:54:18;22.30;99.90
28761;DHT22;15917;50.014;8.352;2023-06-26T01:56:45;22.30;99.90
28761;DHT22;15917;50.014;8.352;2023-06-26T01:59:13;22.20;99.90
28761;DHT22;15917;50.014;8.352;2023-06-26T02:01:40;22.30;99.90
28761;DHT22;15917;50.014;8.352;2023-06-26T02:04:05;22.30;99.90
28761;DHT22;15917;50.014;8.352;2023-06-26T02:06:31;22.20;99.90
28761;DHT22;15917;50.014;8.352;2023-06-26T02:08:58;22.20;99.90
28761;DHT22;15917;50.014;8.352;2023-06-26T02:11:24;22.00;99.90
28761;DHT22;15917;50.014;8.352;2023-06-26T02:13:49;22.00;99.90
28761;DHT22;15917;50.014;8.352;2023-06-26T02:16:15;21.90;99.90
28761;DHT22;15917;50.014;8.352;2023-06-26T02:18:41;21.90;99.90
28761;DHT22;15917;50.014;8.352;2023-06-26T02:21:08;21.90;99.90
28761;DHT22;15917;50.014;8.352;2023-06-26T02:23:34;21.90;99.90
28761;DHT22;15917;50.014;8.352;2023-06-26T02:26:00;21.80;99.90
28761;DHT22;15917;50.014;8.352;2023-06-26T02:28:25;21.70;99.90
28761;DHT22;15917;50.014;8.352;2023-06-26T02:30:51;21.70;99.90
28761;DHT22;15917;50.014;8.352;2023-06-26T02:33:17;21.80;99.90
28761;DHT22;15917;50.014;8.352;2023-06-26T02:35:46;21.80;99.90
28761;DHT22;15917;50.014;8.352;2023-06-26T02:38:12;21.70;99.90
28761;DHT22;15917;50.014;8.352;2023-06-26T02:40:39;21.70;99.90
28761;DHT22;15917;50.014;8.352;2023-06-26T02:43:04;21.60;99.90
28761;DHT22;15917;50.014;8.352;2023-06-26T02:45:31;21.60;99.90
28761;DHT22;15917;50.014;8.352;2023-06-26T02:47:56;21.60;99.90
28761;DHT22;15917;50.014;8.352;2023-06-26T02:50:22;21.50;99.90
28761;DHT22;15917;50.014;8.352;2023-06-26T02:53:05;21.50;99.90
28761;DHT22;15917;50.014;8.352;2023-06-26T02:55:31;21.50;99.90
28761;DHT22;15917;50.014;8.352;2023-06-26T02:57:57;21.50;99.90
28761;DHT22;15917;50.014;8.352;2023-06-26T03:00:23;21.50;99.90
28761;DHT22;15917;50.014;8.352;2023-06-26T03:02:51;21.40;99.90
28761;DHT22;15917;50.014;8.352;2023-06-26T03:05:18;21.40;99.90
28761;DHT22;15917;50.014;8.352;2023-06-26T03:07:45;21.30;99.90
28761;DHT22;15917;50.014;8.352;2023-06-26T03:10:10;21.40;99.90
28761;DHT22;15917;50.014;8.352;2023-06-26T03:12:36;21.30;99.90
28761;DHT22;15917;50.014;8.352;2023-06-26T03:15:01;21.30;99.90
28761;DHT22;15917;50.014;8.352;2023-06-26T03:17:27;21.20;99.90
28761;DHT22;15917;50.014;8.352;2023-06-26T03:19:58;21.20;99.90
28761;DHT22;15917;50.014;8.352;2023-06-26T03:22:30;21.20;99.90
28761;DHT22;15917;50.014;8.352;2023-06-26T03:24:56;21.20;99.90
28761;DHT22;15917;50.014;8.352;2023-06-26T03:27:21;21.20;99.90
28761;DHT22;15917;50.014;8.352;2023-06-26T03:29:48;21.20;99.90
28761;DHT22;15917;50.014;8.352;2023-06-26T03:32:15;21.20;99.90
28761;DHT22;15917;50.014;8.352;2023-06-26T03:34:40;21.10;99.90
28761;DHT22;15917;50.014;8.352;2023-06-26T03:37:06;21.10;99.90
28761;DHT22;15917;50.014;8.352;2023-06-26T03:39:32;21.10;99.90
28761;DHT22;15917;50.014;8.352;2023-06-26T03:41:58;21.00;99.90
28761;DHT22;15917;50.014;8.352;2023-06-26T03:44:26;21.10;99.90
28761;DHT22;15917;50.014;8.352;2023-06-26T03:46:51;21.10;99.90
28761;DHT22;15917;50.014;8.352;2023-06-26T03:49:17;21.10;99.90
28761;DHT22;15917;50.014;8.352;2023-06-26T03:51:43;21.10;99.90
28761;DHT22;15917;50.014;8.352;2023-06-26T03:54:09;21.10;99.90
28761;DHT22;15917;50.014;8.352;2023-06-26T03:56:35;21.10;99.90
28761;DHT22;15917;50.014;8.352;2023-06-26T03:59:01;21.10;99.90
28761;DHT22;15917;50.014;8.352;2023-06-26T04:01:26;21.10;99.90
28761;DHT22;15917;50.014;8.352;2023-06-26T04:03:53;21.00;99.90
28761;DHT22;15917;50.014;8.352;2023-06-26T04:06:19;21.10;99.90
28761;DHT22;15917;50.014;8.352;2023-06-26T04:08:44;21.10;99.90
28761;DHT22;15917;50.014;8.352;2023-06-26T04:11:10;21.10;99.90
28761;DHT22;15917;50.014;8.352;2023-06-26T04:13:35;21.10;99.90
28761;DHT22;15917;50.014;8.352;2023-06-26T04:16:01;21.10;99.90
28761;DHT22;15917;50.014;8.352;2023-06-26T04:18:27;21.10;99.90
28761;DHT22;15917;50.014;8.352;2023-06-26T04:21:09;21.00;99.90
28761;DHT22;15917;50.014;8.352;2023-06-26T04:23:37;21.10;99.90
28761;DHT22;15917;50.014;8.352;2023-06-26T04:26:04;21.00;99.90
28761;DHT22;15917;50.014;8.352;2023-06-26T04:28:34;21.10;99.90
28761;DHT22;15917;50.014;8.352;2023-06-26T04:31:01;21.00;99.90
28761;DHT22;15917;50.014;8.352;2023-06-26T04:33:27;21.10;99.90
28761;DHT22;15917;50.014;8.352;2023-06-26T04:35:53;21.10;99.90
28761;DHT22;15917;50.014;8.352;2023-06-26T04:38:19;21.40;99.90
28761;DHT22;15917;50.014;8.352;2023-06-26T04:40:45;21.50;99.90
28761;DHT22;15917;50.014;8.352;2023-06-26T04:43:11;21.60;99.90
28761;DHT22;15917;50.014;8.352;2023-06-26T04:45:36;21.70;99.90
28761;DHT22;15917;50.014;8.352;2023-06-26T04:48:03;21.70;99.90
28761;DHT22;15917;50.014;8.352;2023-06-26T04:50:30;21.80;99.90
28761;DHT22;15917;50.014;8.352;2023-06-26T04:52:56;21.90;99.90
28761;DHT22;15917;50.014;8.352;2023-06-26T04:55:25;22.10;99.90
28761;DHT22;15917;50.014;8.352;2023-06-26T04:57:51;22.20;99.90
28761;DHT22;15917;50.014;8.352;2023-06-26T05:00:18;22.20;99.90
28761;DHT22;15917;50.014;8.352;2023-06-26T05:02:43;22.20;99.90
28761;DHT22;15917;50.014;8.352;2023-06-26T05:05:09;22.30;99.90
28761;DHT22;15917;50.014;8.352;2023-06-26T05:07:36;22.10;99.90
28761;DHT22;15917;50.014;8.352;2023-06-26T05:10:02;21.90;99.90
28761;DHT22;15917;50.014;8.352;2023-06-26T05:12:28;22.00;99.90
28761;DHT22;15917;50.014;8.352;2023-06-26T05:14:53;22.00;99.90
28761;DHT22;15917;50.014;8.352;2023-06-26T05:17:19;22.20;99.90
28761;DHT22;15917;50.014;8.352;2023-06-26T05:19:44;22.20;99.90
28761;DHT22;15917;50.014;8.352;2023-06-26T05:22:10;22.30;99.90
28761;DHT22;15917;50.014;8.352;2023-06-26T05:24:38;22.40;99.90
28761;DHT22;15917;50.014;8.352;2023-06-26T05:27:05;22.50;99.90
28761;DHT22;15917;50.014;8.352;2023-06-26T05:29:32;22.40;99.90
28761;DHT22;15917;50.014;8.352;2023-06-26T05:31:58;22.30;99.90
28761;DHT22;15917;50.014;8.352;2023-06-26T05:34:24;22.40;99.90
28761;DHT22;15917;50.014;8.352;2023-06-26T05:36:51;22.40;99.90
28761;DHT22;15917;50.014;8.352;2023-06-26T05:39:17;22.50;99.90
28761;DHT22;15917;50.014;8.352;2023-06-26T05:41:44;22.60;99.90
28761;DHT22;15917;50.014;8.352;2023-06-26T05:44:10;22.60;99.90
28761;DHT22;15917;50.014;8.352;2023-06-26T05:46:36;22.60;99.90
28761;DHT22;15917;50.014;8.352;2023-06-26T05:49:01;22.60;99.90
28761;DHT22;15917;50.014;8.352;2023-06-26T05:51:28;22.60;99.90
28761;DHT22;15917;50.014;8.352;2023-06-26T05:53:54;22.60;99.90
28761;DHT22;15917;50.014;8.352;2023-06-26T05:56:20;22.60;99.90
28761;DHT22;15917;50.014;8.352;2023-06-26T05:58:46;22.60;99.90
28761;DHT22;15917;50.014;8.352;2023-06-26T06:01:11;22.70;99.90
28761;DHT22;15917;50.014;8.352;2023-06-26T06:03:39;22.70;99.90
28761;DHT22;15917;50.014;8.352;2023-06-26T06:06:05;22.90;99.90
28761;DHT22;15917;50.014;8.352;2023-06-26T06:08:30;23.00;99.90
28761;DHT22;15917;50.014;8.352;2023-06-26T06:10:56;23.10;99.90
28761;DHT22;15917;50.014;8.352;2023-06-26T06:13:22;23.20;99.90
28761;DHT22;15917;50.014;8.352;2023-06-26T06:15:47;23.20;99.90
28761;DHT22;15917;50.014;8.352;2023-06-26T06:18:13;23.30;99.90
28761;DHT22;15917;50.014;8.352;2023-06-26T06:20:38;23.30;99.90
28761;DHT22;15917;50.014;8.352;2023-06-26T06:23:04;23.50;99.90
28761;DHT22;15917;50.014;8.352;2023-06-26T06:25:29;23.60;99.90
28761;DHT22;15917;50.014;8.352;2023-06-26T06:27:56;23.80;99.90
28761;DHT22;15917;50.014;8.352;2023-06-26T06:30:21;23.70;99.90
28761;DHT22;15917;50.014;8.352;2023-06-26T06:32:47;23.50;99.90
28761;DHT22;15917;50.014;8.352;2023-06-26T06:35:17;23.50;99.90
28761;DHT22;15917;50.014;8.352;2023-06-26T06:37:43;23.50;99.90
28761;DHT22;15917;50.014;8.352;2023-06-26T06:40:12;23.60;99.90
28761;DHT22;15917;50.014;8.352;2023-06-26T06:42:37;23.70;99.90
28761;DHT22;15917;50.014;8.352;2023-06-26T06:45:04;23.80;99.90
28761;DHT22;15917;50.014;8.352;2023-06-26T06:47:31;23.90;99.90
28761;DHT22;15917;50.014;8.352;2023-06-26T06:49:57;24.00;99.90
28761;DHT22;15917;50.014;8.352;2023-06-26T06:52:22;24.10;99.90
28761;DHT22;15917;50.014;8.352;2023-06-26T06:54:55;24.20;99.90
28761;DHT22;15917;50.014;8.352;2023-06-26T06:57:24;24.20;99.90
28761;DHT22;15917;50.014;8.352;2023-06-26T06:59:49;24.30;99.90
28761;DHT22;15917;50.014;8.352;2023-06-26T07:02:17;24.30;99.90
28761;DHT22;15917;50.014;8.352;2023-06-26T07:04:43;24.30;99.90
28761;DHT22;15917;50.014;8.352;2023-06-26T07:07:08;24.40;99.90
28761;DHT22;15917;50.014;8.352;2023-06-26T07:09:35;24.50;99.90
28761;DHT22;15917;50.014;8.352;2023-06-26T07:12:01;24.50;99.90
28761;DHT22;15917;50.014;8.352;2023-06-26T07:14:30;24.60;99.90
28761;DHT22;15917;50.014;8.352;2023-06-26T07:16:56;24.80;99.90
28761;DHT22;15917;50.014;8.352;2023-06-26T07:19:21;24.90;99.90
28761;DHT22;15917;50.014;8.352;2023-06-26T07:21:47;24.90;99.90
28761;DHT22;15917;50.014;8.352;2023-06-26T07:24:12;24.90;99.90
28761;DHT22;15917;50.014;8.352;2023-06-26T07:26:38;24.90;99.90
28761;DHT22;15917;50.014;8.352;2023-06-26T07:29:04;25.10;99.90
28761;DHT22;15917;50.014;8.352;2023-06-26T07:31:30;25.20;99.90
28761;DHT22;15917;50.014;8.352;2023-06-26T07:33:56;25.30;99.90
28761;DHT22;15917;50.014;8.352;2023-06-26T07:36:21;25.40;99.90
28761;DHT22;15917;50.014;8.352;2023-06-26T07:38:47;25.50;99.90
28761;DHT22;15917;50.014;8.352;2023-06-26T07:41:12;25.50;99.90
28761;DHT22;15917;50.014;8.352;2023-06-26T07:43:38;25.60;99.90
28761;DHT22;15917;50.014;8.352;2023-06-26T07:46:03;25.60;99.90
28761;DHT22;15917;50.014;8.352;2023-06-26T07:48:29;25.60;99.90
28761;DHT22;15917;50.014;8.352;2023-06-26T07:50:54;25.70;99.90
28761;DHT22;15917;50.014;8.352;2023-06-26T07:53:20;25.80;99.90
28761;DHT22;15917;50.014;8.352;2023-06-26T07:55:46;26.00;99.90
28761;DHT22;15917;50.014;8.352;2023-06-26T07:58:11;26.10;99.90
28761;DHT22;15917;50.014;8.352;2023-06-26T08:00:37;26.40;99.90
28761;DHT22;15917;50.014;8.352;2023-06-26T08:03:03;26.40;99.90
28761;DHT22;15917;50.014;8.352;2023-06-26T08:05:29;26.30;99.90
28761;DHT22;15917;50.014;8.352;2023-06-26T08:07:55;26.40;99.90
28761;DHT22;15917;50.014;8.352;2023-06-26T08:10:20;26.30;99.90
28761;DHT22;15917;50.014;8.352;2023-06-26T08:12:46;26.30;99.90
28761;DHT22;15917;50.014;8.352;2023-06-26T08:15:12;26.30;99.90
28761;DHT22;15917;50.014;8.352;2023-06-26T08:17:38;26.40;99.90
28761;DHT22;15917;50.014;8.352;2023-06-26T08:20:04;26.50;99.90
28761;DHT22;15917;50.014;8.352;2023-06-26T08:22:30;26.60;99.90
28761;DHT22;15917;50.014;8.352;2023-06-26T08:24:56;26.80;99.90
28761;DHT22;15917;50.014;8.352;2023-06-26T08:27:22;26.90;99.90
28761;DHT22;15917;50.014;8.352;2023-06-26T08:29:48;27.00;99.90
28761;DHT22;15917;50.014;8.352;2023-06-26T08:32:13;27.20;99.90
28761;DHT22;15917;50.014;8.352;2023-06-26T08:34:39;27.40;99.90
28761;DHT22;15917;50.014;8.352;2023-06-26T08:37:05;27.50;99.90
28761;DHT22;15917;50.014;8.352;2023-06-26T08:39:30;27.70;99.90
28761;DHT22;15917;50.014;8.352;2023-06-26T08:41:56;27.80;99.90
28761;DHT22;15917;50.014;8.352;2023-06-26T08:44:21;28.00;99.90
28761;DHT22;15917;50.014;8.352;2023-06-26T08:46:50;28.30;99.90
28761;DHT22;15917;50.014;8.352;2023-06-26T08:49:42;28.40;99.80
28761;DHT22;15917;50.014;8.352;2023-06-26T08:52:35;28.60;99.10
28761;DHT22;15917;50.014;8.352;2023-06-26T08:54:59;28.70;98.60
28761;DHT22;15917;50.014;8.352;2023-06-26T08:57:26;28.70;98.90
28761;DHT22;15917;50.014;8.352;2023-06-26T08:59:52;28.80;98.80
28761;DHT22;15917;50.014;8.352;2023-06-26T09:02:18;28.80;98.10
28761;DHT22;15917;50.014;8.352;2023-06-26T09:04:47;28.90;98.20
28761;DHT22;15917;50.014;8.352;2023-06-26T09:07:13;29.00;97.70
28761;DHT22;15917;50.014;8.352;2023-06-26T09:09:39;29.10;97.10
28761;DHT22;15917;50.014;8.352;2023-06-26T09:12:04;29.20;97.40
28761;DHT22;15917;50.014;8.352;2023-06-26T09:14:30;29.20;97.20
28761;DHT22;15917;50.014;8.352;2023-06-26T09:16:56;29.20;97.10
28761;DHT22;15917;50.014;8.352;2023-06-26T09:19:21;29.40;97.70
28761;DHT22;15917;50.014;8.352;2023-06-26T09:21:50;29.50;97.20
28761;DHT22;15917;50.014;8.352;2023-06-26T09:24:16;29.60;97.30
28761;DHT22;15917;50.014;8.352;2023-06-26T09:26:42;29.60;97.20
28761;DHT22;15917;50.014;8.352;2023-06-26T09:29:09;29.60;97.30
28761;DHT22;15917;50.014;8.352;2023-06-26T09:31:39;29.40;97.10
28761;DHT22;15917;50.014;8.352;2023-06-26T09:34:05;29.40;97.80
28761;DHT22;15917;50.014;8.352;2023-06-26T09:36:33;29.50;97.40
28761;DHT22;15917;50.014;8.352;2023-06-26T09:39:00;29.60;96.70
28761;DHT22;15917;50.014;8.352;2023-06-26T09:41:26;29.50;97.00
28761;DHT22;15917;50.014;8.352;2023-06-26T09:43:54;29.50;97.20
28761;DHT22;15917;50.014;8.352;2023-06-26T09:46:30;29.50;97.20
28761;DHT22;15917;50.014;8.352;2023-06-26T09:49:10;29.70;96.90
28761;DHT22;15917;50.014;8.352;2023-06-26T09:51:37;29.80;96.90
28761;DHT22;15917;50.014;8.352;2023-06-26T09:54:04;29.60;96.90
28761;DHT22;15917;50.014;8.352;2023-06-26T09:56:31;29.60;97.50
28761;DHT22;15917;50.014;8.352;2023-06-26T09:59:00;29.40;96.70
28761;DHT22;15917;50.014;8.352;2023-06-26T10:01:30;29.30;96.80
28761;DHT22;15917;50.014;8.352;2023-06-26T10:03:56;29.10;97.10
28761;DHT22;15917;50.014;8.352;2023-06-26T10:08:52;29.10;97.20
28761;DHT22;15917;50.014;8.352;2023-06-26T10:11:21;29.00;97.30
28761;DHT22;15917;50.014;8.352;2023-06-26T10:13:49;29.00;97.50
28761;DHT22;15917;50.014;8.352;2023-06-26T10:16:23;29.10;97.30
28761;DHT22;15917;50.014;8.352;2023-06-26T10:18:52;29.30;97.00
28761;DHT22;15917;50.014;8.352;2023-06-26T10:21:20;29.30;96.60
28761;DHT22;15917;50.014;8.352;2023-06-26T10:23:47;29.40;96.60
28761;DHT22;15917;50.014;8.352;2023-06-26T10:26:14;29.60;97.00
28761;DHT22;15917;50.014;8.352;2023-06-26T10:28:41;29.80;96.60
28761;DHT22;15917;50.014;8.352;2023-06-26T10:31:09;30.10;96.30
28761;DHT22;15917;50.014;8.352;2023-06-26T10:33:36;30.30;96.10
28761;DHT22;15917;50.014;8.352;2023-06-26T10:36:17;30.40;95.70
28761;DHT22;15917;50.014;8.352;2023-06-26T10:39:04;30.50;95.50
28761;DHT22;15917;50.014;8.352;2023-06-26T10:41:37;30.60;95.10
28761;DHT22;15917;50.014;8.352;2023-06-26T10:46:53;30.50;95.10
28761;DHT22;15917;50.014;8.352;2023-06-26T10:49:19;30.40;95.10
28761;DHT22;15917;50.014;8.352;2023-06-26T10:51:49;30.40;95.10
28761;DHT22;15917;50.014;8.352;2023-06-26T10:54:16;30.30;95.30
28761;DHT22;15917;50.014;8.352;2023-06-26T10:56:53;30.30;94.90
28761;DHT22;15917;50.014;8.352;2023-06-26T10:59:23;30.50;94.80
28761;DHT22;15917;50.014;8.352;2023-06-26T11:01:59;30.40;94.60
28761;DHT22;15917;50.014;8.352;2023-06-26T11:04:38;30.30;94.80
28761;DHT22;15917;50.014;8.352;2023-06-26T11:07:21;30.20;94.50
28761;DHT22;15917;50.014;8.352;2023-06-26T11:10:01;30.50;94.70
28761;DHT22;15917;50.014;8.352;2023-06-26T11:12:35;30.50;94.50
28761;DHT22;15917;50.014;8.352;2023-06-26T11:15:02;30.50;93.60
28761;DHT22;15917;50.014;8.352;2023-06-26T11:17:29;30.40;93.60
28761;DHT22;15917;50.014;8.352;2023-06-26T11:19:55;30.50;92.70
28761;DHT22;15917;50.014;8.352;2023-06-26T11:22:21;30.60;92.20
28761;DHT22;15917;50.014;8.352;2023-06-26T11:24:52;30.70;91.60
28761;DHT22;15917;50.014;8.352;2023-06-26T11:27:18;30.80;91.70
28761;DHT22;15917;50.014;8.352;2023-06-26T11:29:48;30.90;90.80
28761;DHT22;15917;50.014;8.352;2023-06-26T11:32:15;30.80;90.80
28761;DHT22;15917;50.014;8.352;2023-06-26T11:34:40;30.70;90.90
28761;DHT22;15917;50.014;8.352;2023-06-26T11:37:08;30.60;90.90
28761;DHT22;15917;50.014;8.352;2023-06-26T11:39:34;30.80;90.10
28761;DHT22;15917;50.014;8.352;2023-06-26T11:42:00;30.90;89.80
28761;DHT22;15917;50.014;8.352;2023-06-26T11:44:29;31.00;89.30
28761;DHT22;15917;50.014;8.352;2023-06-26T11:46:56;31.00;89.80
28761;DHT22;15917;50.014;8.352;2023-06-26T11:49:22;31.20;89.50
28761;DHT22;15917;50.014;8.352;2023-06-26T11:51:51;31.40;89.30
28761;DHT22;15917;50.014;8.352;2023-06-26T11:54:26;31.50;87.40
28761;DHT22;15917;50.014;8.352;2023-06-26T11:56:53;31.60;87.60
28761;DHT22;15917;50.014;8.352;2023-06-26T11:59:19;31.70;86.60
28761;DHT22;15917;50.014;8.352;2023-06-26T12:01:45;31.70;86.50
28761;DHT22;15917;50.014;8.352;2023-06-26T12:04:12;31.70;85.90
28761;DHT22;15917;50.014;8.352;2023-06-26T12:06:42;31.60;86.30
28761;DHT22;15917;50.014;8.352;2023-06-26T12:09:10;31.40;86.10
28761;DHT22;15917;50.014;8.352;2023-06-26T12:11:42;31.20;86.70
28761;DHT22;15917;50.014;8.352;2023-06-26T12:14:09;31.40;84.90
28761;DHT22;15917;50.014;8.352;2023-06-26T12:16:36;31.30;83.70
28761;DHT22;15917;50.014;8.352;2023-06-26T12:19:06;31.50;83.40
28761;DHT22;15917;50.014;8.352;2023-06-26T12:24:09;31.70;82.20
28761;DHT22;15917;50.014;8.352;2023-06-26T12:26:35;31.80;80.60
28761;DHT22;15917;50.014;8.352;2023-06-26T12:29:05;31.80;79.60
28761;DHT22;15917;50.014;8.352;2023-06-26T12:31:32;31.70;79.00
28761;DHT22;15917;50.014;8.352;2023-06-26T12:33:57;31.60;80.10
28761;DHT22;15917;50.014;8.352;2023-06-26T12:36:23;31.60;80.10
28761;DHT22;15917;50.014;8.352;2023-06-26T12:38:49;31.60;80.00
28761;DHT22;15917;50.014;8.352;2023-06-26T12:41:15;31.60;89.70
28761;DHT22;15917;50.014;8.352;2023-06-26T12:43:42;31.40;91.00
28761;DHT22;15917;50.014;8.352;2023-06-26T12:46:08;31.00;91.70
28761;DHT22;15917;50.014;8.352;2023-06-26T12:48:41;30.90;92.30
28761;DHT22;15917;50.014;8.352;2023-06-26T12:51:13;31.00;92.60
28761;DHT22;15917;50.014;8.352;2023-06-26T12:53:40;30.80;92.70
28761;DHT22;15917;50.014;8.352;2023-06-26T12:56:09;30.60;92.80
28761;DHT22;15917;50.014;8.352;2023-06-26T12:58:36;30.30;93.20
28761;DHT22;15917;50.014;8.352;2023-06-26T13:01:04;30.00;93.70
28761;DHT22;15917;50.014;8.352;2023-06-26T13:03:31;29.80;93.90
28761;DHT22;15917;50.014;8.352;2023-06-26T13:05:57;29.80;94.30
28761;DHT22;15917;50.014;8.352;2023-06-26T13:08:22;29.80;94.70
28761;DHT22;15917;50.014;8.352;2023-06-26T13:10:48;30.10;93.30
28761;DHT22;15917;50.014;8.352;2023-06-26T13:13:14;30.30;93.70
28761;DHT22;15917;50.014;8.352;2023-06-26T13:15:39;30.60;92.10
28761;DHT22;15917;50.014;8.352;2023-06-26T13:18:05;30.70;91.50
28761;DHT22;15917;50.014;8.352;2023-06-26T13:20:30;30.70;91.40
28761;DHT22;15917;50.014;8.352;2023-06-26T13:22:56;30.70;91.20
28761;DHT22;15917;50.014;8.352;2023-06-26T13:25:22;30.90;91.00
28761;DHT22;15917;50.014;8.352;2023-06-26T13:27:48;30.80;90.40
28761;DHT22;15917;50.014;8.352;2023-06-26T13:30:15;30.70;90.60
28761;DHT22;15917;50.014;8.352;2023-06-26T13:32:40;30.50;90.70
28761;DHT22;15917;50.014;8.352;2023-06-26T13:35:06;30.50;91.00
28761;DHT22;15917;50.014;8.352;2023-06-26T13:37:32;30.60;90.70
28761;DHT22;15917;50.014;8.352;2023-06-26T13:40:00;30.80;90.30
28761;DHT22;15917;50.014;8.352;2023-06-26T13:42:27;30.80;89.80
28761;DHT22;15917;50.014;8.352;2023-06-26T13:44:53;31.00;89.50
28761;DHT22;15917;50.014;8.352;2023-06-26T13:47:19;30.90;90.00
28761;DHT22;15917;50.014;8.352;2023-06-26T13:49:44;30.70;89.40
28761;DHT22;15917;50.014;8.352;2023-06-26T13:52:10;30.60;89.70
28761;DHT22;15917;50.014;8.352;2023-06-26T13:54:39;30.50;89.50
28761;DHT22;15917;50.014;8.352;2023-06-26T13:57:06;30.40;90.00
28761;DHT22;15917;50.014;8.352;2023-06-26T13:59:32;30.60;90.30
28761;DHT22;15917;50.014;8.352;2023-06-26T14:01:58;30.70;90.00
28761;DHT22;15917;50.014;8.352;2023-06-26T14:04:24;30.90;89.80
28761;DHT22;15917;50.014;8.352;2023-06-26T14:06:50;31.10;89.50
28761;DHT22;15917;50.014;8.352;2023-06-26T14:09:15;31.20;89.20
28761;DHT22;15917;50.014;8.352;2023-06-26T14:11:41;31.10;88.60
28761;DHT22;15917;50.014;8.352;2023-06-26T14:14:07;30.90;89.00
28761;DHT22;15917;50.014;8.352;2023-06-26T14:16:32;30.50;89.20
28761;DHT22;15917;50.014;8.352;2023-06-26T14:18:58;30.30;90.30
28761;DHT22;15917;50.014;8.352;2023-06-26T14:21:24;30.20;90.00
28761;DHT22;15917;50.014;8.352;2023-06-26T14:23:49;30.00;89.30
28761;DHT22;15917;50.014;8.352;2023-06-26T14:26:15;30.20;89.50
28761;DHT22;15917;50.014;8.352;2023-06-26T14:28:41;30.30;88.40
28761;DHT22;15917;50.014;8.352;2023-06-26T14:31:07;30.40;87.80
28761;DHT22;15917;50.014;8.352;2023-06-26T14:33:33;30.20;86.80
28761;DHT22;15917;50.014;8.352;2023-06-26T14:35:58;30.10;87.30
28761;DHT22;15917;50.014;8.352;2023-06-26T14:38:24;30.00;87.10
28761;DHT22;15917;50.014;8.352;2023-06-26T14:40:49;29.90;86.60
28761;DHT22;15917;50.014;8.352;2023-06-26T14:43:15;29.80;86.30
28761;DHT22;15917;50.014;8.352;2023-06-26T14:45:41;29.80;86.30
28761;DHT22;15917;50.014;8.352;2023-06-26T14:48:07;29.80;86.20
28761;DHT22;15917;50.014;8.352;2023-06-26T14:50:33;29.80;85.40
28761;DHT22;15917;50.014;8.352;2023-06-26T14:52:59;29.80;83.70
28761;DHT22;15917;50.014;8.352;2023-06-26T14:55:24;30.00;83.60
28761;DHT22;15917;50.014;8.352;2023-06-26T14:57:50;30.00;83.70
28761;DHT22;15917;50.014;8.352;2023-06-26T15:00:16;30.10;83.60
28761;DHT22;15917;50.014;8.352;2023-06-26T15:02:42;30.10;84.10
28761;DHT22;15917;50.014;8.352;2023-06-26T15:05:08;29.90;82.60
28761;DHT22;15917;50.014;8.352;2023-06-26T15:07:33;29.90;81.80
28761;DHT22;15917;50.014;8.352;2023-06-26T15:09:59;30.10;80.50
28761;DHT22;15917;50.014;8.352;2023-06-26T15:12:25;30.20;80.90
28761;DHT22;15917;50.014;8.352;2023-06-26T15:14:52;30.10;81.80
28761;DHT22;15917;50.014;8.352;2023-06-26T15:17:18;30.00;79.70
28761;DHT22;15917;50.014;8.352;2023-06-26T15:19:44;30.10;79.40
28761;DHT22;15917;50.014;8.352;2023-06-26T15:22:09;30.10;78.50
28761;DHT22;15917;50.014;8.352;2023-06-26T15:24:35;29.80;78.50
28761;DHT22;15917;50.014;8.352;2023-06-26T15:27:00;29.70;78.80
28761;DHT22;15917;50.014;8.352;2023-06-26T15:29:26;29.70;79.80
28761;DHT22;15917;50.014;8.352;2023-06-26T15:31:52;29.80;80.00
28761;DHT22;15917;50.014;8.352;2023-06-26T15:34:19;29.90;78.40
28761;DHT22;15917;50.014;8.352;2023-06-26T15:36:44;30.00;78.60
28761;DHT22;15917;50.014;8.352;2023-06-26T15:39:10;30.10;78.10
28761;DHT22;15917;50.014;8.352;2023-06-26T15:41:36;30.10;77.30
28761;DHT22;15917;50.014;8.352;2023-06-26T15:44:03;30.00;77.70